Time;durP1;ratioP1;P1;durP2;ratioP2;P2;SDS_P1;SDS_P2;PMS_P1;PMS_P2;Temp;Humidity;BMP_temperature;BMP_pressure;BME280_temperature;BME280_humidity;BME280_pressure;Samples;Min_cycle;Max_cycle;Signal;HPM_P1;HPM_P2
2020/12/17 00:00:40;;;;;;;26.23;23.10;;;2.60;99.90;;;3.19;90.99;98220.88;5229083;28;20203;-78
2020/12/17 00:03:12;;;;;;;26.43;23.07;;;2.60;99.90;;;3.14;90.92;98217.94;5229127;28;20201;-79
2020/12/17 00:05:44;;;;;;;24.57;21.80;;;2.50;99.90;;;3.17;90.88;98228.31;5229422;28;20727;-78
2020/12/17 00:08:18;;;;;;;24.93;22.23;;;2.50;99.90;;;3.17;91.63;98227.41;5228731;28;20232;-79
2020/12/17 00:10:50;;;;;;;24.73;22.07;;;2.60;99.90;;;3.23;91.40;98217.00;5228925;28;20681;-78
2020/12/17 00:13:23;;;;;;;24.27;21.67;;;2.60;99.90;;;3.28;90.99;98226.75;5229009;28;20226;-79
2020/12/17 00:15:55;;;;;;;24.80;21.90;;;2.60;99.90;;;3.26;91.45;98227.38;5228480;28;20200;-78
2020/12/17 00:18:27;;;;;;;24.77;22.10;;;2.60;99.90;;;3.23;91.50;98227.09;5228025;28;20719;-78
2020/12/17 00:20:59;;;;;;;25.00;21.37;;;2.60;99.90;;;3.26;91.00;98222.31;5228815;28;20972;-78
2020/12/17 00:23:31;;;;;;;24.17;21.57;;;2.60;99.90;;;3.30;91.27;98220.22;5229009;28;20208;-79
2020/12/17 00:26:04;;;;;;;24.63;21.77;;;2.60;99.90;;;3.37;90.89;98214.97;5228108;28;20202;-78
2020/12/17 00:28:38;;;;;;;23.60;21.07;;;2.70;99.90;;;3.37;90.50;98226.72;5227139;28;20224;-79
2020/12/17 00:31:10;;;;;;;24.07;21.40;;;2.60;99.90;;;3.41;90.44;98218.66;5227801;28;20205;-78
2020/12/17 00:33:42;;;;;;;22.70;20.33;;;2.70;99.90;;;3.44;90.33;98218.94;5228796;28;20213;-79
2020/12/17 00:36:18;;;;;;;24.43;21.83;;;2.70;99.90;;;3.47;90.58;98211.63;5227876;28;20204;-78
2020/12/17 00:38:50;;;;;;;23.33;20.70;;;2.80;99.90;;;3.37;90.32;98220.00;5227430;28;20303;-79
2020/12/17 00:41:22;;;;;;;24.37;20.87;;;2.70;99.90;;;3.36;90.44;98218.25;5228273;28;20282;-79
2020/12/17 00:43:55;;;;;;;22.07;19.73;;;2.70;99.90;;;3.34;89.90;98217.22;5227815;28;20649;-78
2020/12/17 00:46:27;;;;;;;22.77;20.30;;;2.70;99.90;;;3.31;90.27;98218.56;5228547;28;20243;-78
2020/12/17 00:48:59;;;;;;;22.27;19.93;;;2.70;99.90;;;3.21;90.62;98214.34;5228621;28;20225;-79
2020/12/17 00:51:31;;;;;;;22.20;19.80;;;2.60;99.90;;;3.22;90.46;98225.31;5228580;28;20190;-79
2020/12/17 00:54:03;;;;;;;22.40;20.03;;;2.60;99.90;;;3.21;90.60;98236.19;5227576;28;20200;-78
2020/12/17 00:56:35;;;;;;;22.03;19.67;;;2.60;99.90;;;3.30;90.12;98224.38;5228294;28;20288;-79
2020/12/17 00:59:08;;;;;;;21.73;19.53;;;2.60;99.90;;;3.32;89.69;98228.84;5227635;28;20304;-77
2020/12/17 01:01:40;;;;;;;21.07;18.17;;;2.70;99.90;;;3.29;89.72;98232.69;5226927;28;20201;-78
2020/12/17 01:04:12;;;;;;;23.83;21.33;;;2.60;99.90;;;3.13;89.86;98236.38;5227729;28;20204;-78
2020/12/17 01:06:44;;;;;;;23.43;21.03;;;2.50;99.90;;;3.16;89.49;98228.19;5227094;28;20199;-78
2020/12/17 01:09:17;;;;;;;24.43;21.37;;;2.50;99.90;;;3.23;89.25;98222.03;5227554;28;20314;-79
2020/12/17 01:11:49;;;;;;;22.87;20.03;;;2.60;99.90;;;3.19;89.75;98225.06;5228228;28;20283;-78
2020/12/17 01:14:22;;;;;;;23.37;20.87;;;2.50;99.90;;;3.15;90.06;98229.81;5227683;28;20243;-78
2020/12/17 01:16:54;;;;;;;26.57;21.63;;;2.50;99.90;;;3.19;89.84;98230.09;5227455;28;20670;-79
2020/12/17 01:19:27;;;;;;;26.57;21.67;;;2.50;99.90;;;3.08;90.19;98217.38;5227610;28;20248;-78
2020/12/17 01:21:59;;;;;;;25.67;22.47;;;2.50;99.90;;;3.07;89.89;98223.19;5227488;28;20200;-79
2020/12/17 01:24:31;;;;;;;27.50;22.10;;;2.50;99.90;;;3.06;90.01;98229.00;5227336;28;20278;-78
2020/12/17 01:27:03;;;;;;;28.87;23.03;;;2.40;99.90;;;3.07;89.70;98234.94;5226878;28;20201;-79
2020/12/17 01:29:37;;;;;;;25.13;21.13;;;2.40;99.90;;;3.03;89.36;98231.19;5227059;28;20760;-79
2020/12/17 01:32:10;;;;;;;26.83;21.97;;;2.40;99.90;;;3.00;89.71;98238.50;5227616;28;20660;-79
2020/12/17 01:34:42;;;;;;;23.60;20.87;;;2.40;99.90;;;3.04;89.46;98239.69;5227343;28;20192;-79
2020/12/17 01:37:24;;;;;;;23.50;20.70;;;2.40;99.90;;;2.97;89.47;98237.34;5227360;28;20208;-79
2020/12/17 01:39:56;;;;;;;28.20;21.63;;;2.40;99.90;;;2.97;90.11;98237.34;5226742;28;20219;-78
2020/12/17 01:42:28;;;;;;;23.80;21.30;;;2.30;99.90;;;3.06;89.85;98250.81;5227637;28;20696;-78
2020/12/17 01:45:01;;;;;;;21.73;19.43;;;2.30;99.90;;;3.01;89.55;98249.50;5226720;28;20208;-78
2020/12/17 01:47:38;;;;;;;24.33;19.83;;;2.30;99.90;;;2.97;90.35;98238.22;5227553;28;20296;-78
2020/12/17 01:50:11;;;;;;;24.63;19.97;;;2.30;99.90;;;2.95;90.21;98242.25;5226338;28;20304;-79
2020/12/17 01:52:43;;;;;;;23.50;19.53;;;2.40;99.90;;;2.96;90.32;98238.09;5226545;28;20197;-78
2020/12/17 01:55:16;;;;;;;22.17;19.87;;;2.30;99.90;;;2.96;89.83;98228.88;5226130;28;20189;-79
2020/12/17 01:57:48;;;;;;;24.40;19.30;;;2.30;99.90;;;2.93;90.17;98214.34;5227090;28;20213;-78
2020/12/17 02:00:22;;;;;;;22.00;19.30;;;2.30;99.90;;;2.86;89.97;98224.63;5226450;28;20196;-78
2020/12/17 02:02:56;;;;;;;23.43;20.87;;;2.30;99.90;;;2.84;90.51;98222.72;5226585;28;20262;-78
2020/12/17 02:05:29;;;;;;;23.37;18.97;;;2.30;99.90;;;2.87;90.42;98221.34;5226807;28;20200;-78
2020/12/17 02:08:01;;;;;;;24.73;19.60;;;2.30;99.90;;;2.92;90.02;98219.25;5226763;28;20212;-78
2020/12/17 02:10:33;;;;;;;21.93;18.97;;;2.30;99.90;;;2.92;89.96;98227.72;5226609;28;20228;-78
2020/12/17 02:13:05;;;;;;;21.77;18.70;;;2.30;99.90;;;2.88;90.11;98229.81;5226617;28;20621;-78
2020/12/17 02:15:38;;;;;;;22.00;19.37;;;2.20;99.90;;;2.98;89.68;98229.03;5226218;28;20205;-79
2020/12/17 02:18:10;;;;;;;21.10;18.80;;;2.20;99.90;;;2.91;89.97;98236.00;5227151;28;20310;-78
2020/12/17 02:20:42;;;;;;;21.40;19.10;;;2.20;99.90;;;2.87;90.04;98231.44;5226788;28;20692;-79
2020/12/17 02:23:14;;;;;;;22.40;18.50;;;2.20;99.90;;;2.85;90.05;98243.03;5226367;28;20193;-79
2020/12/17 02:25:48;;;;;;;20.23;17.60;;;2.20;99.90;;;2.83;90.10;98244.53;5226264;28;20587;-78
2020/12/17 02:28:21;;;;;;;18.57;16.67;;;2.10;99.90;;;2.73;89.86;98248.59;5226582;28;20213;-78
2020/12/17 02:30:53;;;;;;;20.27;18.07;;;2.00;99.90;;;2.69;90.16;98250.81;5226525;28;20284;-78
2020/12/17 02:33:26;;;;;;;21.37;18.47;;;2.00;99.90;;;2.63;90.29;98255.31;5225868;28;20242;-78
2020/12/17 02:35:58;;;;;;;19.27;17.27;;;2.00;99.90;;;2.65;89.91;98253.78;5225648;28;20591;-78
2020/12/17 02:38:30;;;;;;;20.23;18.07;;;2.00;99.90;;;2.71;90.42;98253.47;5225386;28;20722;-79
2020/12/17 02:41:03;;;;;;;20.40;17.63;;;2.00;99.90;;;2.66;89.58;98255.59;5226694;28;20211;-78
2020/12/17 02:43:35;;;;;;;21.67;18.67;;;1.90;99.90;;;2.69;89.79;98258.41;5226239;28;20196;-79
2020/12/17 02:46:07;;;;;;;19.33;17.33;;;1.90;99.90;;;2.64;89.47;98268.81;5226236;28;20554;-79
2020/12/17 02:48:39;;;;;;;20.73;18.70;;;1.90;99.90;;;2.60;88.69;98266.72;5225133;28;20231;-78
2020/12/17 02:51:12;;;;;;;18.93;17.07;;;1.80;99.90;;;2.63;89.05;98267.91;5206122;28;20619;-79
2020/12/17 02:53:44;;;;;;;20.07;17.83;;;1.80;99.90;;;2.58;89.02;98265.72;5224995;28;20227;-78
2020/12/17 02:56:17;;;;;;;19.87;17.77;;;1.80;99.90;;;2.58;88.48;98256.50;5226177;28;20205;-79
2020/12/17 02:58:49;;;;;;;19.60;17.60;;;1.80;99.90;;;2.44;89.13;98261.88;5225554;28;20221;-79
2020/12/17 03:01:21;;;;;;;19.03;16.80;;;1.80;99.90;;;2.38;89.46;98256.25;5227281;28;20207;-78
2020/12/17 03:03:53;;;;;;;20.00;17.93;;;1.70;99.90;;;2.41;89.23;98262.47;5230688;28;20197;-78
2020/12/17 03:06:25;;;;;;;17.87;15.90;;;1.70;99.90;;;2.47;89.81;98269.75;5230241;28;20204;-78
2020/12/17 03:08:57;;;;;;;18.60;16.63;;;1.70;99.90;;;2.46;89.61;98265.41;5229940;28;20583;-78
2020/12/17 03:11:30;;;;;;;18.93;17.03;;;1.70;99.90;;;2.37;89.30;98264.56;5229592;28;20231;-78
2020/12/17 03:14:02;;;;;;;18.47;16.47;;;1.60;99.90;;;2.28;89.27;98254.47;5229817;28;20723;-78
2020/12/17 03:16:35;;;;;;;19.90;16.87;;;1.60;99.90;;;2.30;89.34;98259.69;5229530;28;20246;-79
2020/12/17 03:19:07;;;;;;;19.97;17.73;;;1.60;99.90;;;2.28;89.27;98261.16;5229836;28;20708;-79
2020/12/17 03:21:39;;;;;;;19.27;17.27;;;1.60;99.90;;;2.24;89.79;98268.44;5229697;28;20721;-78
2020/12/17 03:24:11;;;;;;;19.70;17.43;;;1.60;99.90;;;2.28;90.11;98271.25;5228727;28;20204;-78
2020/12/17 03:26:45;;;;;;;19.13;16.63;;;1.70;99.90;;;2.23;89.48;98260.72;5229590;28;20287;-78
2020/12/17 03:29:17;;;;;;;19.40;16.73;;;1.60;99.90;;;2.23;90.61;98270.78;5229197;28;20710;-78
2020/12/17 03:31:49;;;;;;;19.43;17.43;;;1.60;99.90;;;2.18;90.48;98266.97;5229727;28;20205;-78
2020/12/17 03:34:21;;;;;;;19.53;17.43;;;1.60;99.90;;;2.13;89.90;98266.53;5229452;28;20197;-78
2020/12/17 03:36:53;;;;;;;19.97;17.87;;;1.60;99.90;;;2.15;90.22;98284.34;5228799;28;20193;-78
2020/12/17 03:39:25;;;;;;;20.13;18.03;;;1.50;99.90;;;2.14;90.39;98285.06;5229272;28;20242;-78
2020/12/17 03:41:58;;;;;;;19.37;17.43;;;1.50;99.90;;;2.23;90.77;98285.94;5229181;28;20224;-79
2020/12/17 03:44:30;;;;;;;17.43;15.63;;;1.60;99.90;;;2.30;89.83;98292.47;5229201;28;20204;-79
2020/12/17 03:47:03;;;;;;;18.93;16.83;;;1.50;99.90;;;2.22;89.68;98297.66;5228440;28;20666;-79
2020/12/17 03:49:35;;;;;;;18.17;16.37;;;1.50;99.90;;;2.22;89.72;98296.78;5229150;28;20607;-78
2020/12/17 03:52:07;;;;;;;18.67;16.77;;;1.50;99.90;;;2.25;89.10;98292.91;5229652;28;20300;-79
2020/12/17 03:54:39;;;;;;;18.43;16.53;;;1.40;99.90;;;2.16;89.05;98286.09;5228575;28;20634;-78
2020/12/17 03:57:12;;;;;;;17.90;16.10;;;1.40;99.90;;;2.12;88.90;98302.56;5228938;28;20224;-78
2020/12/17 03:59:44;;;;;;;18.63;16.20;;;1.40;99.90;;;2.11;89.83;98300.78;5228387;28;20220;-78
2020/12/17 04:02:16;;;;;;;19.70;17.60;;;1.40;99.90;;;2.16;89.28;98314.72;5229135;28;20203;-79
2020/12/17 04:04:48;;;;;;;19.53;16.60;;;1.50;99.90;;;2.14;89.25;98317.84;5228878;28;20683;-78
2020/12/17 04:07:21;;;;;;;18.20;16.27;;;1.40;99.90;;;2.16;89.20;98299.59;5225472;28;20205;-79
2020/12/17 04:09:53;;;;;;;17.03;15.13;;;1.40;99.90;;;2.14;89.38;98301.06;5228382;28;20226;-79
2020/12/17 04:12:27;;;;;;;19.70;16.53;;;1.40;99.90;;;2.16;88.53;98299.59;5208155;28;20198;-79
2020/12/17 04:14:59;;;;;;;19.20;17.20;;;1.40;99.90;;;2.05;89.04;98300.19;5227227;28;20645;-79
2020/12/17 04:17:31;;;;;;;18.07;16.17;;;1.30;99.90;;;1.95;89.11;98292.50;5228840;28;20205;-79
2020/12/17 04:20:03;;;;;;;20.27;16.00;;;1.30;99.90;;;2.01;89.05;98293.97;5229020;28;20207;-79
2020/12/17 04:22:35;;;;;;;17.77;15.97;;;1.30;99.90;;;1.98;89.57;98282.72;5227938;28;20599;-79
2020/12/17 04:25:07;;;;;;;18.10;16.00;;;1.20;99.90;;;1.95;89.40;98272.34;5228584;28;20587;-78
2020/12/17 04:27:40;;;;;;;16.57;14.83;;;1.30;99.90;;;1.95;89.47;98277.38;5228549;28;20196;-78
2020/12/17 04:30:12;;;;;;;17.40;15.70;;;1.30;99.90;;;1.94;89.30;98281.50;5228366;28;20221;-79
2020/12/17 04:32:44;;;;;;;18.87;15.97;;;1.30;99.90;;;1.89;89.65;98281.78;5228181;28;20215;-79
2020/12/17 04:35:16;;;;;;;16.37;14.70;;;1.30;99.90;;;1.91;89.24;98280.31;5228415;28;20201;-78
2020/12/17 04:37:48;;;;;;;17.27;15.47;;;1.30;99.90;;;1.92;90.34;98292.19;5228248;28;20196;-78
2020/12/17 04:40:21;;;;;;;18.30;16.03;;;1.20;99.90;;;1.97;89.80;98286.84;5229181;28;20246;-78
2020/12/17 04:42:54;;;;;;;16.67;15.07;;;1.30;99.90;;;1.97;89.58;98288.47;5227952;28;20204;-78
2020/12/17 04:45:26;;;;;;;18.73;16.57;;;1.30;99.90;;;1.91;89.48;98292.91;5227806;28;20210;-78
2020/12/17 04:48:01;;;;;;;16.67;14.47;;;1.20;99.90;;;1.94;89.07;98285.66;5228084;28;20228;-78
2020/12/17 04:50:34;;;;;;;16.47;14.77;;;1.10;99.90;;;1.79;88.53;98298.53;5227688;28;20219;-78
2020/12/17 04:53:08;;;;;;;17.00;15.23;;;1.00;99.90;;;1.74;88.44;98299.72;5227884;28;20207;-78
2020/12/17 04:55:41;;;;;;;17.47;15.67;;;1.00;99.90;;;1.72;89.42;98292.78;5227430;28;20573;-78
2020/12/17 04:58:21;;;;;;;17.10;15.40;;;1.00;99.90;;;1.66;89.96;98293.06;5228313;28;20228;-79
2020/12/17 05:00:55;;;;;;;17.57;15.73;;;1.10;99.90;;;1.67;90.15;98302.41;5227894;28;20197;-79
2020/12/17 05:03:30;;;;;;;17.30;15.60;;;1.10;99.90;;;1.76;90.27;98299.88;5227696;28;20604;-78
2020/12/17 05:06:06;;;;;;;17.17;15.37;;;1.10;99.90;;;1.83;89.65;98291.28;5227654;28;20199;-79
2020/12/17 05:08:38;;;;;;;16.47;14.90;;;1.20;99.90;;;1.85;89.15;98290.69;5227556;28;20231;-78
2020/12/17 05:11:10;;;;;;;17.67;15.77;;;1.20;99.90;;;1.88;90.40;98290.09;5226796;28;20242;-79
2020/12/17 05:13:43;;;;;;;18.70;16.77;;;1.20;99.90;;;1.87;89.99;98288.34;5227065;28;20224;-79
2020/12/17 05:16:15;;;;;;;20.77;18.17;;;1.20;99.90;;;1.77;89.50;98284.94;5227729;28;20197;-79
2020/12/17 05:18:47;;;;;;;29.27;21.70;;;1.20;99.90;;;1.76;90.40;98290.69;5227309;28;20234;-79
2020/12/17 05:21:20;;;;;;;21.80;17.63;;;1.20;99.90;;;1.82;90.01;98279.44;5227426;28;20211;-78
2020/12/17 05:23:52;;;;;;;21.13;17.30;;;1.10;99.90;;;1.78;90.08;98286.69;5227271;28;20249;-78
2020/12/17 05:26:24;;;;;;;20.00;17.80;;;1.10;99.90;;;1.88;90.40;98285.06;5227268;28;20604;-79
2020/12/17 05:28:58;;;;;;;18.87;16.90;;;1.10;99.90;;;1.85;89.94;98289.81;5226602;28;20230;-79
2020/12/17 05:31:33;;;;;;;17.90;16.10;;;1.10;99.90;;;1.82;89.27;98297.06;5228376;28;20196;-79
2020/12/17 05:34:06;;;;;;;18.63;16.67;;;1.10;99.90;;;1.74;89.68;98299.72;5226124;28;20229;-78
2020/12/17 05:36:39;;;;;;;19.27;17.37;;;1.10;99.90;;;1.73;90.09;98302.09;5227523;28;20234;-78
2020/12/17 05:39:15;;;;;;;19.90;17.30;;;1.10;99.90;;;1.72;89.51;98302.84;5226657;28;20212;-78
2020/12/17 05:41:49;;;;;;;18.33;16.27;;;1.10;99.90;;;1.63;90.26;98301.94;5226877;28;20199;-78
2020/12/17 05:44:27;;;;;;;19.53;17.43;;;1.00;99.90;;;1.65;90.05;98310.53;5226693;28;20281;-78
2020/12/17 05:46:59;;;;;;;19.17;17.03;;;1.00;99.90;;;1.60;90.89;98314.22;5226449;28;20194;-78
2020/12/17 05:49:32;;;;;;;18.30;16.40;;;1.00;99.90;;;1.62;90.42;98320.31;5227164;28;20309;-77
2020/12/17 05:52:11;;;;;;;19.73;16.33;;;1.00;99.90;;;1.61;90.53;98334.53;5226869;28;20194;-79
2020/12/17 05:55:01;;;;;;;19.57;17.53;;;1.00;99.90;;;1.64;90.41;98334.84;5226150;28;20203;-78
2020/12/17 05:57:33;;;;;;;19.80;16.63;;;1.10;99.90;;;1.68;91.55;98326.84;5222762;28;20202;-78
2020/12/17 06:00:06;;;;;;;18.00;16.10;;;1.10;99.90;;;1.63;91.05;98343.16;5226372;28;20205;-79
2020/12/17 06:02:38;;;;;;;18.83;16.87;;;1.00;99.90;;;1.67;91.25;98345.22;5226303;28;20806;-78
2020/12/17 06:05:12;;;;;;;17.83;15.93;;;1.10;99.90;;;1.68;90.92;98339.44;5227025;28;20195;-78
2020/12/17 06:07:49;;;;;;;19.67;17.40;;;1.10;99.90;;;1.69;91.05;98338.72;5226091;28;20200;-78
2020/12/17 06:10:28;;;;;;;18.60;16.60;;;1.20;99.90;;;1.70;90.43;98345.53;5223341;28;20228;-78
2020/12/17 06:13:01;;;;;;;18.27;16.27;;;1.10;99.90;;;1.77;90.75;98339.44;5233842;28;20200;-78
2020/12/17 06:15:34;;;;;;;18.23;16.43;;;1.10;99.90;;;1.71;90.24;98343.88;5225461;28;20287;-79
2020/12/17 06:18:11;;;;;;;18.33;16.40;;;1.10;99.90;;;1.74;90.91;98344.19;5216378;28;20719;-78
2020/12/17 06:20:44;;;;;;;19.10;16.80;;;1.20;99.90;;;1.77;91.33;98342.88;5226546;28;20782;-78
2020/12/17 06:23:16;;;;;;;17.93;15.53;;;1.10;99.90;;;1.74;90.35;98347.59;5225539;28;20212;-77
2020/12/17 06:25:54;;;;;;;17.97;16.07;;;1.20;99.90;;;1.75;90.27;98344.34;5229696;28;20206;-78
2020/12/17 06:28:38;;;;;;;18.27;15.80;;;1.10;99.90;;;1.75;90.70;98354.44;5226182;28;20230;-78
2020/12/17 06:31:15;;;;;;;17.57;15.67;;;1.10;99.90;;;1.76;90.61;98361.25;5226653;28;20244;-78
2020/12/17 06:33:47;;;;;;;16.97;14.70;;;1.20;99.90;;;1.75;90.26;98354.44;5226677;28;20199;-79
2020/12/17 06:36:28;;;;;;;17.77;15.97;;;1.10;99.90;;;1.78;90.44;98364.81;5227841;28;20195;-79
2020/12/17 06:39:05;;;;;;;17.03;15.33;;;1.10;99.90;;;1.76;90.13;98376.34;5230494;28;20219;-79
2020/12/17 06:41:37;;;;;;;17.30;15.50;;;1.10;99.90;;;1.80;90.06;98378.47;5227266;28;20192;-79
2020/12/17 06:44:28;;;;;;;16.70;15.00;;;1.20;99.90;;;1.82;90.62;98381.13;5230497;28;20633;-79
2020/12/17 06:47:03;;;;;;;17.93;16.27;;;1.20;99.90;;;1.89;89.81;98385.13;5230295;28;20199;-79
2020/12/17 06:49:35;;;;;;;16.53;14.23;;;1.10;99.90;;;1.84;89.23;98376.25;5229951;28;20219;-79
2020/12/17 06:52:09;;;;;;;16.47;14.87;;;1.10;99.90;;;1.80;90.17;98378.47;5236949;28;20213;-77
2020/12/17 06:54:42;;;;;;;17.17;15.37;;;1.10;99.90;;;1.80;89.17;98387.63;5235307;28;20287;-80
2020/12/17 06:57:16;;;;;;;15.47;13.83;;;1.10;99.90;;;1.74;89.53;98392.94;5230786;28;20576;-78
2020/12/17 07:00:07;;;;;;;15.30;13.83;;;1.10;99.90;;;1.76;89.21;98400.66;5228652;28;20246;-79
2020/12/17 07:02:41;;;;;;;15.90;14.20;;;1.00;99.90;;;1.76;89.19;98406.59;5240105;28;20191;-79
2020/12/17 07:05:32;;;;;;;15.83;14.23;;;1.00;99.90;;;1.86;88.73;98394.91;5231980;28;20222;-79
2020/12/17 07:08:05;;;;;;;15.13;13.63;;;1.00;99.90;;;1.77;88.85;98410.91;5230645;28;20672;-80
2020/12/17 07:10:54;;;;;;;14.57;13.00;;;1.00;99.90;;;1.78;89.03;98412.69;5230573;28;20247;-78
2020/12/17 07:13:39;;;;;;;16.63;14.93;;;1.00;99.90;;;1.82;89.27;98415.50;5229593;28;20207;-79
2020/12/17 07:16:19;;;;;;;15.90;14.30;;;1.10;99.90;;;1.88;88.85;98417.00;5228694;28;20208;-79
2020/12/17 07:18:52;;;;;;;17.30;15.50;;;1.10;99.90;;;1.89;89.14;98417.88;5229245;28;20224;-78
2020/12/17 07:21:26;;;;;;;15.53;14.03;;;1.10;99.90;;;1.88;88.35;98423.69;5224352;28;20208;-78
2020/12/17 07:23:59;;;;;;;16.53;14.93;;;1.10;99.90;;;1.92;88.73;98420.75;5228448;28;20197;-80
2020/12/17 07:26:34;;;;;;;16.47;14.87;;;1.20;99.90;;;1.99;88.92;98430.66;5229245;28;20204;-78
2020/12/17 07:29:10;;;;;;;15.80;14.27;;;1.30;99.90;;;2.07;88.52;98424.75;5227848;28;20274;-79
2020/12/17 07:31:42;;;;;;;15.63;14.13;;;1.30;99.90;;;2.07;88.90;98427.28;5228874;28;20197;-78
2020/12/17 07:34:16;;;;;;;16.23;14.63;;;1.40;99.90;;;2.14;88.56;98428.75;5228283;28;20612;-78
2020/12/17 07:36:49;;;;;;;16.13;14.63;;;1.40;99.90;;;2.18;88.57;98439.31;5228109;28;20192;-78
2020/12/17 07:39:32;;;;;;;14.70;13.27;;;1.40;99.90;;;2.22;88.69;98440.50;5228449;28;20225;-78
2020/12/17 07:42:04;;;;;;;15.33;13.77;;;1.50;99.90;;;2.29;89.12;98447.03;5228626;28;20680;-78
2020/12/17 07:44:36;;;;;;;15.70;14.20;;;1.60;99.90;;;2.32;89.62;98455.81;5227851;28;20200;-78
2020/12/17 07:47:20;;;;;;;15.43;13.93;;;1.60;99.90;;;2.40;88.34;98452.38;5226979;28;20200;-78
2020/12/17 07:49:52;;;;;;;16.30;14.70;;;1.70;99.90;;;2.39;89.10;98464.84;5228463;28;20502;-78
2020/12/17 07:52:32;;;;;;;17.23;15.53;;;1.70;99.90;;;2.46;89.49;98458.06;5228956;28;20201;-79
2020/12/17 07:55:04;;;;;;;15.57;13.93;;;1.70;99.90;;;2.48;88.64;98460.69;5227679;28;20189;-79
2020/12/17 07:57:36;;;;;;;18.30;16.33;;;1.80;99.90;;;2.56;88.67;98467.38;5227164;28;20193;-78
2020/12/17 08:00:08;;;;;;;22.87;19.40;;;1.80;99.90;;;2.64;88.96;98466.50;5227927;28;20200;-78
2020/12/17 08:02:42;;;;;;;23.07;19.60;;;1.90;99.90;;;2.67;88.33;98473.50;5227746;28;20203;-78
2020/12/17 08:05:23;;;;;;;19.90;17.87;;;1.90;99.90;;;2.85;88.04;98469.31;5227437;28;20299;-78
2020/12/17 08:07:55;;;;;;;18.67;16.67;;;2.10;99.90;;;2.90;88.28;98471.53;5228875;28;20230;-78
2020/12/17 08:10:27;;;;;;;17.27;15.57;;;2.10;99.90;;;2.96;87.90;98478.81;5227234;28;20995;-78
2020/12/17 08:12:59;;;;;;;19.00;17.00;;;2.10;99.90;;;3.13;86.78;98477.91;5226910;28;20200;-78
2020/12/17 08:15:31;;;;;;;16.93;15.23;;;2.10;99.90;;;3.01;86.05;98472.59;5227996;28;20202;-78
2020/12/17 08:18:05;;;;;;;16.83;15.13;;;2.00;99.90;;;3.00;86.42;98485.03;5227710;28;20217;-79
2020/12/17 08:20:38;;;;;;;16.67;14.90;;;2.10;99.90;;;3.08;87.08;98479.97;5221146;28;20200;-80
2020/12/17 08:23:11;;;;;;;16.57;14.90;;;2.10;99.90;;;3.02;86.79;98473.47;5226706;28;20207;-78
2020/12/17 08:25:43;;;;;;;16.80;15.10;;;2.10;99.90;;;3.09;87.14;98485.91;5227571;28;20198;-79
2020/12/17 08:28:16;;;;;;;16.17;14.57;;;2.20;99.90;;;3.03;86.73;98488.75;5228086;28;20307;-78
2020/12/17 08:30:48;;;;;;;15.63;14.13;;;2.20;99.90;;;3.17;87.39;98485.91;5222469;28;20217;-79
2020/12/17 08:33:21;;;;;;;16.23;14.63;;;2.30;99.90;;;3.20;87.12;98482.78;5227715;28;20207;-78
2020/12/17 08:36:01;;;;;;;16.43;14.83;;;2.30;99.90;;;3.24;86.10;98497.50;5227273;28;20220;-78
2020/12/17 08:38:34;;;;;;;15.43;14.13;;;2.30;99.90;;;3.32;86.44;98500.75;5206672;28;20218;-78
2020/12/17 08:41:09;;;;;;;16.13;14.63;;;2.30;99.90;;;3.28;86.19;98494.50;5224634;28;20212;-78
2020/12/17 08:43:47;;;;;;;15.70;14.30;;;2.30;99.90;;;3.27;86.88;98501.97;5226025;28;20198;-79
2020/12/17 08:46:20;;;;;;;15.13;13.73;;;2.40;99.90;;;3.50;85.41;98511.72;5226677;28;20684;-79
2020/12/17 08:48:54;;;;;;;15.90;14.43;;;2.60;99.90;;;3.47;86.23;98507.28;5227147;28;20216;-79
2020/12/17 08:51:28;;;;;;;14.37;13.00;;;2.60;99.90;;;3.60;87.00;98505.13;5236235;28;20224;-78
2020/12/17 08:54:00;;;;;;;16.33;14.63;;;2.90;99.90;;;3.91;86.64;98502.06;5239748;28;20204;-78
2020/12/17 08:56:32;;;;;;;16.63;15.03;;;3.20;99.90;;;4.15;86.19;98503.44;5226848;28;20741;-78
2020/12/17 08:59:05;;;;;;;16.03;14.57;;;3.30;99.90;;;4.29;85.35;98498.00;5225938;28;20241;-78
2020/12/17 09:01:38;;;;;;;16.33;14.83;;;3.50;99.90;;;4.37;84.86;98512.25;5227901;28;20198;-79
2020/12/17 09:04:10;;;;;;;16.33;14.87;;;3.50;99.90;;;4.39;84.30;98505.69;5227267;28;20197;-78
2020/12/17 09:06:51;;;;;;;17.70;15.93;;;3.60;99.90;;;4.42;84.61;98513.56;5227285;28;20290;-79
2020/12/17 09:09:26;;;;;;;17.27;15.67;;;3.70;99.90;;;4.43;85.67;98511.91;5227461;28;20234;-79
2020/12/17 09:12:14;;;;;;;16.93;15.33;;;3.80;99.90;;;4.66;84.81;98506.41;5226492;28;20204;-79
2020/12/17 09:14:45;;;;;;;16.20;14.70;;;4.00;99.90;;;4.91;83.66;98514.56;5226424;28;20204;-79
2020/12/17 09:17:18;;;;;;;17.67;15.90;;;4.10;99.90;;;4.91;83.88;98507.84;5219530;28;20193;-79
2020/12/17 09:19:50;;;;;;;16.87;15.17;;;4.20;99.90;;;5.10;82.95;98502.78;5227104;28;20220;-79
2020/12/17 09:22:31;;;;;;;16.50;14.80;;;4.40;99.90;;;5.17;81.89;98505.09;5206341;28;20201;-79
2020/12/17 09:25:04;;;;;;;16.70;15.20;;;4.50;99.90;;;5.14;82.69;98499.75;5220534;28;20192;-78
2020/12/17 09:27:37;;;;;;;17.20;15.47;;;4.50;99.90;;;5.18;82.42;98511.06;5228180;28;20664;-78
2020/12/17 09:30:12;;;;;;;16.47;14.87;;;4.50;99.90;;;5.26;83.33;98510.06;5226237;28;20320;-78
2020/12/17 09:32:52;;;;;;;18.17;16.37;;;4.60;99.90;;;5.74;80.43;98512.56;5226348;28;20366;-78
2020/12/17 09:35:29;;;;;;;16.93;15.20;;;5.00;99.90;;;5.65;80.51;98511.78;5225735;28;20279;-78
2020/12/17 09:38:06;;;;;;;17.03;15.30;;;5.00;99.90;;;5.96;79.70;98515.34;5226626;28;20739;-78
2020/12/17 09:40:41;;;;;;;16.67;15.00;;;5.20;99.90;;;5.86;79.83;98518.69;5226673;28;20197;-78
2020/12/17 09:43:15;;;;;;;15.80;14.40;;;5.10;99.90;;;5.80;80.57;98532.50;5226060;28;20209;-79
2020/12/17 09:45:49;;;;;;;16.77;15.10;;;5.00;99.90;;;5.83;80.47;98523.50;5225376;28;20201;-78
2020/12/17 09:48:23;;;;;;;17.07;15.37;;;5.00;99.90;;;6.05;80.32;98525.38;5225660;28;20225;-78
2020/12/17 09:50:57;;;;;;;15.97;14.47;;;5.30;99.90;;;6.37;78.94;98517.94;5225767;28;20235;-79
2020/12/17 09:53:33;;;;;;;16.00;14.43;;;5.60;99.90;;;6.35;79.51;98521.09;5225130;28;20186;-78
2020/12/17 09:56:09;;;;;;;15.53;14.13;;;5.60;99.90;;;6.15;78.95;98522.84;5226134;28;20201;-78
2020/12/17 09:58:43;;;;;;;15.37;13.87;;;5.40;99.90;;;6.06;80.61;98529.69;5224513;28;20235;-78
2020/12/17 10:01:16;;;;;;;15.53;14.10;;;5.30;99.90;;;6.13;81.38;98534.53;5225715;28;20197;-79
2020/12/17 10:03:48;;;;;;;16.33;14.63;;;5.40;99.90;;;6.11;81.69;98530.97;5226389;28;20209;-79
2020/12/17 10:06:20;;;;;;;16.47;14.87;;;5.50;99.90;;;6.14;80.85;98535.41;5225630;28;20204;-78
2020/12/17 10:08:53;;;;;;;17.50;15.90;;;5.40;99.90;;;6.31;80.22;98533.53;5225254;28;20220;-78
2020/12/17 10:11:26;;;;;;;16.80;15.20;;;5.50;99.90;;;6.16;80.52;98528.84;5225118;28;20692;-79
2020/12/17 10:13:58;;;;;;;15.03;13.63;;;5.40;99.90;;;6.08;80.39;98530.72;5228419;28;20493;-79
2020/12/17 10:16:30;;;;;;;14.63;13.43;;;5.30;99.90;;;5.98;81.80;98540.81;5225763;28;20205;-78
2020/12/17 10:19:02;;;;;;;16.17;14.77;;;5.30;99.90;;;6.07;81.02;98539.97;5226522;28;20228;-79
2020/12/17 10:21:35;;;;;;;17.17;15.60;;;5.30;99.90;;;6.04;81.38;98538.84;5225009;28;20203;-78
2020/12/17 10:24:09;;;;;;;15.67;14.27;;;5.30;99.90;;;6.03;82.23;98537.91;5225198;28;20193;-79
2020/12/17 10:26:41;;;;;;;16.27;14.77;;;5.30;99.90;;;6.25;81.57;98529.59;5227343;28;20582;-79
2020/12/17 10:29:28;;;;;;;16.27;14.80;;;5.40;99.90;;;6.36;81.87;98528.84;5225183;28;20216;-79
2020/12/17 10:32:00;;;;;;;15.37;14.00;;;5.70;99.90;;;6.47;82.35;98528.09;5225526;28;20282;-78
2020/12/17 10:34:32;;;;;;;15.73;14.13;;;5.90;99.90;;;6.62;82.08;98525.94;5225464;28;20198;-79
2020/12/17 10:37:05;;;;;;;13.93;12.67;;;6.00;99.90;;;6.73;82.43;98522.66;5225782;28;20205;-79
2020/12/17 10:39:38;;;;;;;15.67;14.30;;;6.20;99.90;;;6.85;81.76;98511.72;5224894;28;20213;-78
2020/12/17 10:42:10;;;;;;;16.50;15.10;;;6.30;99.90;;;7.00;81.87;98524.00;5216271;28;20193;-78
2020/12/17 10:44:42;;;;;;;16.27;15.00;;;6.40;99.90;;;7.22;80.06;98526.63;5225158;28;20203;-79
2020/12/17 10:47:14;;;;;;;17.27;15.77;;;6.50;99.90;;;7.18;80.53;98529.72;5225330;28;20542;-79